createdAt,value
2022-09-07T00:00:55.675Z,30.67
2022-09-07T00:03:29.781Z,32.67
2022-09-07T00:06:00.646Z,29.95
2022-09-07T00:08:33.891Z,29.88
2022-09-07T00:11:04.963Z,29.63
2022-09-07T00:13:35.643Z,28.00
2022-09-07T00:16:18.667Z,29.55
2022-09-07T00:18:46.729Z,27.60
2022-09-07T00:21:22.380Z,32.90
2022-09-07T00:24:00.301Z,30.38
2022-09-07T00:26:41.051Z,32.10
2022-09-07T00:29:18.053Z,28.75
2022-09-07T00:31:48.069Z,29.67
2022-09-07T00:34:21.266Z,31.02
2022-09-07T00:37:01.426Z,29.35
2022-09-07T00:39:36.817Z,27.50
2022-09-07T00:42:09.942Z,26.33
2022-09-07T00:44:43.171Z,25.02
2022-09-07T00:47:23.626Z,27.63
2022-09-07T00:50:00.703Z,25.42
2022-09-07T00:52:36.573Z,24.35
2022-09-07T00:55:23.837Z,27.35
2022-09-07T00:57:58.548Z,27.88
2022-09-07T01:00:39.538Z,28.77
2022-09-07T01:03:08.017Z,27.23
2022-09-07T01:06:13.393Z,28.63
2022-09-07T01:08:49.690Z,26.65
2022-09-07T01:11:27.433Z,25.35
2022-09-07T01:14:04.430Z,25.80
2022-09-07T01:16:49.702Z,30.00
2022-09-07T01:19:58.978Z,29.05
2022-09-07T01:23:09.984Z,27.75
2022-09-07T01:25:55.797Z,25.40
2022-09-07T01:28:34.632Z,26.80
2022-09-07T01:31:41.813Z,27.38
2022-09-07T01:34:31.732Z,28.42
2022-09-07T01:37:16.993Z,26.95
2022-09-07T01:40:01.449Z,29.23
2022-09-07T01:42:44.034Z,29.00
2022-09-07T01:45:21.332Z,28.23
2022-09-07T01:48:11.766Z,30.83
2022-09-07T01:50:59.037Z,30.55
2022-09-07T01:53:43.868Z,31.92
2022-09-07T01:56:19.956Z,26.08
2022-09-07T01:58:59.196Z,32.17
2022-09-07T02:01:39.471Z,28.73
2022-09-07T02:04:10.516Z,27.58
2022-09-07T02:07:05.864Z,29.48
2022-09-07T02:10:04.351Z,26.33
2022-09-07T02:13:12.357Z,26.63
2022-09-07T02:15:55.829Z,25.67
2022-09-07T02:18:34.641Z,26.73
2022-09-07T02:21:03.179Z,27.92
2022-09-07T02:23:48.351Z,29.02
2022-09-07T02:26:24.309Z,26.58
2022-09-07T02:29:05.521Z,28.02
2022-09-07T02:31:37.387Z,26.38
2022-09-07T02:34:17.819Z,27.38
2022-09-07T02:36:48.195Z,27.60
2022-09-07T02:39:15.325Z,31.00
2022-09-07T02:41:48.588Z,38.47
2022-09-07T02:44:31.565Z,50.55
2022-09-07T02:47:21.013Z,47.58
2022-09-07T02:50:03.695Z,42.95
2022-09-07T02:53:12.542Z,40.25
2022-09-07T02:56:03.400Z,36.60
2022-09-07T02:58:58.131Z,34.67
2022-09-07T03:01:57.520Z,33.65
2022-09-07T03:04:58.472Z,37.28
2022-09-07T03:07:44.440Z,40.95
2022-09-07T03:10:21.201Z,47.55
2022-09-07T03:12:52.263Z,45.08
2022-09-07T03:15:24.746Z,41.47
2022-09-07T03:17:58.819Z,40.53
2022-09-07T03:20:26.641Z,37.33
2022-09-07T03:22:53.711Z,36.45
2022-09-07T03:25:24.008Z,34.63
2022-09-07T03:27:51.139Z,33.42
2022-09-07T03:30:24.550Z,36.72
2022-09-07T03:32:59.483Z,33.88
2022-09-07T03:35:32.226Z,31.50
2022-09-07T03:37:59.375Z,30.33
2022-09-07T03:40:32.404Z,30.55
2022-09-07T03:43:04.191Z,30.80
2022-09-07T03:45:51.372Z,36.45
2022-09-07T03:48:25.996Z,34.25
2022-09-07T03:51:01.549Z,32.60
2022-09-07T03:53:31.931Z,32.97
2022-09-07T03:56:08.685Z,31.30
2022-09-07T03:58:36.420Z,30.52
2022-09-07T04:01:22.416Z,32.60
2022-09-07T04:04:03.009Z,32.83
2022-09-07T04:06:39.102Z,46.83
2022-09-07T04:09:12.030Z,45.88
2022-09-07T04:11:44.689Z,43.97
2022-09-07T04:14:14.165Z,43.23
2022-09-07T04:16:52.855Z,40.97
2022-09-07T04:19:22.933Z,39.08
2022-09-07T04:21:55.405Z,43.53
2022-09-07T04:24:26.935Z,45.85
2022-09-07T04:26:57.014Z,41.13
2022-09-07T04:29:24.139Z,42.63
2022-09-07T04:31:59.449Z,42.67
2022-09-07T04:34:42.129Z,45.13
2022-09-07T04:37:12.687Z,44.45
2022-09-07T04:39:40.202Z,56.92
2022-09-07T04:42:07.470Z,66.30
2022-09-07T04:44:37.167Z,66.57
2022-09-07T04:47:07.264Z,67.93
2022-09-07T04:49:34.552Z,65.47
2022-09-07T04:52:07.822Z,58.72
2022-09-07T04:54:34.817Z,58.72
2022-09-07T04:57:02.016Z,50.95
2022-09-07T04:59:29.990Z,56.97
2022-09-07T05:02:08.187Z,57.17
2022-09-07T05:04:38.076Z,64.90
2022-09-07T05:07:06.796Z,64.25
2022-09-07T05:09:33.903Z,69.10
2022-09-07T05:12:15.383Z,77.35
2022-09-07T05:14:48.469Z,82.82
2022-09-07T05:17:21.498Z,85.40
2022-09-07T05:19:51.493Z,79.93
2022-09-07T05:22:21.406Z,90.63
2022-09-07T05:24:50.482Z,83.63
2022-09-07T05:27:17.601Z,82.10
2022-09-07T05:30:06.253Z,79.57
2022-09-07T05:32:45.270Z,83.28
2022-09-07T05:35:15.294Z,76.50
2022-09-07T05:37:42.323Z,70.22
2022-09-07T05:40:09.883Z,66.97
2022-09-07T05:42:39.891Z,66.38
2022-09-07T05:45:13.846Z,53.60
2022-09-07T05:47:46.141Z,48.13
2022-09-07T05:50:13.183Z,44.63
2022-09-07T05:52:45.831Z,34.22
2022-09-07T05:55:29.332Z,26.73
2022-09-07T05:57:57.429Z,26.25
2022-09-07T06:00:28.073Z,20.25
2022-09-07T06:03:06.929Z,16.60
2022-09-07T06:05:36.193Z,19.42
2022-09-07T06:08:12.320Z,17.45
2022-09-07T06:13:17.736Z,15.68
2022-09-07T06:15:50.669Z,13.32
2022-09-07T06:18:20.581Z,12.65
2022-09-07T06:20:48.652Z,14.15
2022-09-07T06:23:18.922Z,19.00
2022-09-07T06:25:49.967Z,13.85
2022-09-07T06:28:49.707Z,13.93
2022-09-07T06:31:19.842Z,13.02
2022-09-07T06:33:52.395Z,11.13
2022-09-07T06:36:27.950Z,12.50
2022-09-07T06:38:59.273Z,14.57
2022-09-07T06:44:27.533Z,12.15
2022-09-07T06:49:28.723Z,13.18
2022-09-07T06:51:58.178Z,9.57
2022-09-07T06:57:36.569Z,14.65
2022-09-07T07:00:18.209Z,9.25
2022-09-07T07:02:50.162Z,10.07
2022-09-07T07:05:22.207Z,9.50
2022-09-07T07:07:55.402Z,9.65
2022-09-07T07:10:24.768Z,8.65
2022-09-07T07:12:57.586Z,14.32
2022-09-07T07:15:28.915Z,8.30
2022-09-07T07:18:21.231Z,7.10
2022-09-07T07:20:55.832Z,10.15
2022-09-07T07:23:25.143Z,9.57
2022-09-07T07:26:01.198Z,7.88
2022-09-07T07:31:23.338Z,8.65
2022-09-07T07:33:54.197Z,9.48
2022-09-07T07:36:27.407Z,8.60
2022-09-07T07:44:16.748Z,7.18
2022-09-07T07:46:44.431Z,9.45
2022-09-07T07:49:14.017Z,9.48
2022-09-07T07:54:38.732Z,8.50
2022-09-07T07:57:06.145Z,10.23
2022-09-07T07:59:43.967Z,7.88
2022-09-07T08:04:59.050Z,8.65
2022-09-07T08:07:26.068Z,8.18
2022-09-07T08:09:53.161Z,7.68
2022-09-07T08:12:26.603Z,14.50
2022-09-07T08:14:56.225Z,10.68
2022-09-07T08:17:23.324Z,7.40
2022-09-07T08:19:56.355Z,6.75
2022-09-07T08:22:26.720Z,10.68
2022-09-07T08:24:53.684Z,7.65
2022-09-07T08:27:20.894Z,6.95
2022-09-07T08:29:53.287Z,11.27
2022-09-07T08:32:28.248Z,11.55
2022-09-07T08:35:01.025Z,8.57
2022-09-07T08:37:31.760Z,7.78
2022-09-07T08:40:01.962Z,6.47
2022-09-07T08:42:40.621Z,6.45
2022-09-07T08:45:41.295Z,9.82
2022-09-07T08:48:16.598Z,9.48
2022-09-07T08:51:04.458Z,6.32
2022-09-07T08:53:42.446Z,11.20
2022-09-07T08:56:17.845Z,6.28
2022-09-07T08:58:51.216Z,5.05
2022-09-07T09:07:37.203Z,8.20
2022-09-07T09:10:24.844Z,12.48
2022-09-07T09:13:10.009Z,6.28
2022-09-07T09:16:12.183Z,4.63
2022-09-07T09:18:48.189Z,7.18
2022-09-07T09:21:24.911Z,9.80
2022-09-07T09:23:55.246Z,5.32
2022-09-07T09:26:31.592Z,8.27
2022-09-07T09:29:02.313Z,5.60
2022-09-07T09:31:38.780Z,6.70
2022-09-07T09:34:09.359Z,5.75
2022-09-07T09:36:47.942Z,9.70
2022-09-07T09:39:29.614Z,5.95
2022-09-07T09:42:00.110Z,12.50
2022-09-07T09:44:38.436Z,8.27
2022-09-07T09:50:09.473Z,7.43
2022-09-07T09:52:49.194Z,6.05
2022-09-07T09:55:36.084Z,5.90
2022-09-07T10:03:10.557Z,5.38
2022-09-07T10:04:35.154Z,10.45
2022-09-07T10:07:39.089Z,5.18
2022-09-07T10:10:16.700Z,6.20
2022-09-07T10:12:49.363Z,6.03
2022-09-07T10:15:41.061Z,8.38
2022-09-07T10:18:27.134Z,6.10
2022-09-07T10:21:31.286Z,4.35
2022-09-07T10:24:14.618Z,6.25
2022-09-07T10:26:50.818Z,11.40
2022-09-07T10:29:40.272Z,6.55
2022-09-07T10:32:11.738Z,7.70
2022-09-07T10:35:16.945Z,6.15
2022-09-07T10:38:06.752Z,6.40
2022-09-07T10:40:47.807Z,5.82
2022-09-07T10:43:32.773Z,7.15
2022-09-07T10:46:59.594Z,10.48
2022-09-07T10:49:30.998Z,6.88
2022-09-07T10:52:17.735Z,6.15
2022-09-07T10:55:00.918Z,5.97
2022-09-07T10:57:45.664Z,7.28
2022-09-07T11:00:24.315Z,5.70
2022-09-07T11:03:26.109Z,6.13
2022-09-07T11:06:12.392Z,5.07
2022-09-07T11:12:05.652Z,9.27
2022-09-07T11:14:53.509Z,8.52
2022-09-07T11:17:28.294Z,5.90
2022-09-07T11:21:04.937Z,5.07
2022-09-07T11:23:54.353Z,6.78
2022-09-07T11:26:50.557Z,5.00
2022-09-07T11:30:11.727Z,4.32
2022-09-07T11:33:21.460Z,7.85
2022-09-07T11:36:28.999Z,6.05
2022-09-07T11:39:05.149Z,5.32
2022-09-07T11:41:46.291Z,4.88
2022-09-07T11:44:32.827Z,7.28
2022-09-07T11:47:11.085Z,9.70
2022-09-07T11:49:41.488Z,9.80
2022-09-07T11:52:19.360Z,8.77
2022-09-07T11:54:53.275Z,7.78
2022-09-07T11:57:49.683Z,5.45
2022-09-07T12:00:29.937Z,9.85
2022-09-07T12:03:24.431Z,5.18
2022-09-07T12:06:08.769Z,6.30
2022-09-07T12:08:57.146Z,7.10
2022-09-07T12:11:26.174Z,9.32
2022-09-07T12:14:34.678Z,9.18
2022-09-07T12:17:20.741Z,9.70
2022-09-07T12:20:10.316Z,7.93
2022-09-07T12:22:54.598Z,10.25
2022-09-07T12:25:26.475Z,6.25
2022-09-07T12:27:54.132Z,8.80
2022-09-07T12:30:31.945Z,16.52
2022-09-07T12:33:18.817Z,8.15
2022-09-07T12:35:51.820Z,13.30
2022-09-07T12:38:45.867Z,7.82
2022-09-07T12:41:26.632Z,7.50
2022-09-07T12:44:07.074Z,9.63
2022-09-07T12:46:35.591Z,8.07
2022-09-07T12:49:19.323Z,8.13
2022-09-07T12:52:16.809Z,7.45
2022-09-07T12:55:25.751Z,10.23
2022-09-07T12:58:35.289Z,8.82
2022-09-07T13:01:30.648Z,9.07
2022-09-07T13:04:31.391Z,7.43
2022-09-07T13:07:22.934Z,6.47
2022-09-07T13:10:08.823Z,12.23
2022-09-07T13:12:57.638Z,12.10
2022-09-07T13:15:33.148Z,9.38
2022-09-07T13:18:13.370Z,6.68
2022-09-07T13:20:46.709Z,7.13
2022-09-07T13:23:21.832Z,8.13
2022-09-07T13:26:01.584Z,8.75
2022-09-07T13:28:36.047Z,10.73
2022-09-07T13:31:19.850Z,10.80
2022-09-07T13:33:54.246Z,11.27
2022-09-07T13:36:48.776Z,12.85
2022-09-07T13:39:23.747Z,11.07
2022-09-07T13:41:56.389Z,10.63
2022-09-07T13:44:35.998Z,9.48
2022-09-07T13:47:32.851Z,9.52
2022-09-07T13:50:17.862Z,10.73
2022-09-07T13:53:15.041Z,10.18
2022-09-07T13:55:57.014Z,9.85
2022-09-07T13:58:37.458Z,11.60
2022-09-07T14:01:24.145Z,11.93
2022-09-07T14:04:23.482Z,11.70
2022-09-07T14:07:06.715Z,15.10
2022-09-07T14:09:38.250Z,9.85
2022-09-07T14:12:16.057Z,9.50
2022-09-07T14:14:45.646Z,10.32
2022-09-07T14:17:20.850Z,9.50
2022-09-07T14:20:06.869Z,9.15
2022-09-07T14:22:36.562Z,11.50
2022-09-07T14:25:09.317Z,9.63
2022-09-07T14:27:43.814Z,10.60
2022-09-07T14:30:23.839Z,11.90
2022-09-07T14:33:01.109Z,12.55
2022-09-07T14:35:40.028Z,11.32
2022-09-07T14:41:24.141Z,14.35
2022-09-07T14:44:02.755Z,12.55
2022-09-07T14:46:36.923Z,13.30
2022-09-07T14:49:19.440Z,16.17
2022-09-07T14:51:48.410Z,13.70
2022-09-07T14:54:30.648Z,12.40
2022-09-07T14:57:34.334Z,11.93
2022-09-07T15:00:32.089Z,14.75
2022-09-07T15:03:01.700Z,13.35
2022-09-07T15:05:35.976Z,17.95
2022-09-07T15:08:46.014Z,14.07
2022-09-07T15:11:33.668Z,13.55
2022-09-07T15:14:16.492Z,16.08
2022-09-07T15:17:42.620Z,16.05
2022-09-07T15:19:37.394Z,13.93
2022-09-07T15:22:20.397Z,19.38
2022-09-07T15:24:48.027Z,15.40
2022-09-07T15:27:24.913Z,16.17
2022-09-07T15:29:58.707Z,16.55
2022-09-07T15:32:31.575Z,17.10
2022-09-07T15:34:58.388Z,16.45
2022-09-07T15:40:44.114Z,15.98
2022-09-07T15:43:28.275Z,15.88
2022-09-07T15:48:56.970Z,15.30
2022-09-07T15:54:22.573Z,17.17
2022-09-07T15:59:47.122Z,18.60
2022-09-07T16:05:13.607Z,15.23
2022-09-07T16:10:43.565Z,15.32
2022-09-07T16:13:19.209Z,15.23
2022-09-07T16:15:49.717Z,12.30
2022-09-07T16:18:19.833Z,12.23
2022-09-07T16:20:55.735Z,13.10
2022-09-07T16:23:27.097Z,13.10
2022-09-07T16:26:04.508Z,12.38
2022-09-07T16:28:35.575Z,12.35
2022-09-07T16:31:26.361Z,14.98
2022-09-07T16:33:56.023Z,16.35
2022-09-07T16:36:33.154Z,27.13
2022-09-07T16:39:01.382Z,14.93
2022-09-07T16:41:34.007Z,14.50
2022-09-07T16:44:06.591Z,17.33
2022-09-07T16:46:42.408Z,16.57
2022-09-07T16:49:14.999Z,15.85
2022-09-07T16:51:56.826Z,23.73
2022-09-07T16:54:26.263Z,20.85
2022-09-07T16:56:58.822Z,18.73
2022-09-07T16:59:31.180Z,26.33
2022-09-07T17:02:02.973Z,23.95
2022-09-07T17:04:29.941Z,22.42
2022-09-07T17:06:59.575Z,21.00
2022-09-07T17:09:31.656Z,27.35
2022-09-07T17:12:04.739Z,36.35
2022-09-07T17:14:36.966Z,25.13
2022-09-07T17:17:08.013Z,31.00
2022-09-07T17:19:40.513Z,31.70
2022-09-07T17:22:20.540Z,32.90
2022-09-07T17:24:53.568Z,32.00
2022-09-07T17:28:05.315Z,28.15
2022-09-07T17:30:39.741Z,23.40
2022-09-07T17:33:17.169Z,23.88
2022-09-07T17:36:05.010Z,23.58
2022-09-07T17:41:29.840Z,28.83
2022-09-07T17:44:00.983Z,22.02
2022-09-07T17:46:31.711Z,23.48
2022-09-07T17:49:11.512Z,21.17
2022-09-07T17:51:45.247Z,24.85
2022-09-07T17:54:16.272Z,25.27
2022-09-07T17:56:43.608Z,25.98
2022-09-07T18:02:22.416Z,38.90
2022-09-07T18:04:52.199Z,23.10
2022-09-07T18:07:27.834Z,25.38
2022-09-07T18:09:57.910Z,27.50
2022-09-07T18:12:27.436Z,29.30
2022-09-07T18:14:57.103Z,30.60
2022-09-07T18:17:55.760Z,25.42
2022-09-07T18:20:38.728Z,30.27
2022-09-07T18:23:11.703Z,27.90
2022-09-07T18:25:44.376Z,23.42
2022-09-07T18:31:16.318Z,23.58
2022-09-07T18:33:44.439Z,33.08
2022-09-07T18:36:18.961Z,25.90
2022-09-07T18:38:53.570Z,27.83
2022-09-07T18:41:28.440Z,31.80
2022-09-07T18:44:00.893Z,27.02
2022-09-07T18:46:34.691Z,24.38
2022-09-07T18:49:07.538Z,21.73
2022-09-07T18:54:29.732Z,19.23
2022-09-07T18:57:04.937Z,22.80
2022-09-07T18:59:33.475Z,25.02
2022-09-07T19:02:08.406Z,22.77
2022-09-07T19:07:32.067Z,21.25
2022-09-07T19:10:09.549Z,23.77
2022-09-07T19:12:45.655Z,25.05
2022-09-07T19:15:18.982Z,23.42
2022-09-07T19:17:58.316Z,26.27
2022-09-07T19:20:33.286Z,21.30
2022-09-07T19:23:08.875Z,22.08
2022-09-07T19:25:42.950Z,24.23
2022-09-07T19:28:22.978Z,22.90
2022-09-07T19:30:52.652Z,22.42
2022-09-07T19:33:22.549Z,21.58
2022-09-07T19:35:58.695Z,24.60
2022-09-07T19:38:31.435Z,23.40
2022-09-07T19:41:01.570Z,24.15
2022-09-07T19:43:40.593Z,23.70
2022-09-07T19:46:12.735Z,24.17
2022-09-07T19:48:42.443Z,22.05
2022-09-07T19:51:12.700Z,22.77
2022-09-07T19:53:44.022Z,28.15
2022-09-07T19:56:19.649Z,23.85
2022-09-07T19:58:57.082Z,24.88
2022-09-07T20:01:25.109Z,25.55
2022-09-07T20:04:05.264Z,23.15
2022-09-07T20:06:35.713Z,24.02
2022-09-07T20:09:02.480Z,27.95
2022-09-07T20:11:30.325Z,22.67
2022-09-07T20:14:25.356Z,22.05
2022-09-07T20:16:54.743Z,24.35
2022-09-07T20:19:31.585Z,26.70
2022-09-07T20:22:04.634Z,24.45
2022-09-07T20:24:35.525Z,25.70
2022-09-07T20:27:03.325Z,27.30
2022-09-07T20:29:38.263Z,28.27
2022-09-07T20:32:10.181Z,24.83
2022-09-07T20:34:43.069Z,29.52
2022-09-07T20:37:22.519Z,25.20
2022-09-07T20:39:56.580Z,27.23
2022-09-07T20:42:23.481Z,27.90
2022-09-07T20:44:55.876Z,26.42
2022-09-07T20:47:24.041Z,26.98
2022-09-07T20:49:53.972Z,26.25
2022-09-07T20:52:23.730Z,29.60
2022-09-07T20:54:53.082Z,33.88
2022-09-07T20:57:21.328Z,30.23
2022-09-07T20:59:56.668Z,32.08
2022-09-07T21:02:31.535Z,29.05
2022-09-07T21:05:03.799Z,33.22
2022-09-07T21:07:30.715Z,28.65
2022-09-07T21:10:03.414Z,29.55
2022-09-07T21:12:35.007Z,27.42
2022-09-07T21:15:11.653Z,30.98
2022-09-07T21:17:41.622Z,33.03
2022-09-07T21:20:17.686Z,32.03
2022-09-07T21:22:49.078Z,29.75
2022-09-07T21:25:18.578Z,30.05
2022-09-07T21:27:48.330Z,34.55
2022-09-07T21:30:22.039Z,30.30
2022-09-07T21:33:03.085Z,33.42
2022-09-07T21:35:31.286Z,31.50
2022-09-07T21:38:05.986Z,30.75
2022-09-07T21:40:37.418Z,36.00
2022-09-07T21:43:09.440Z,31.27
2022-09-07T21:45:36.373Z,29.80
2022-09-07T21:48:03.334Z,29.13
2022-09-07T21:50:30.361Z,34.30
2022-09-07T21:52:57.605Z,31.33
2022-09-07T21:55:30.188Z,37.30
2022-09-07T21:58:01.498Z,31.45
2022-09-07T22:00:28.503Z,34.53
2022-09-07T22:03:01.078Z,36.47
2022-09-07T22:05:30.948Z,32.63
2022-09-07T22:07:58.006Z,30.60
2022-09-07T22:10:30.474Z,36.53
2022-09-07T22:13:07.720Z,31.58
2022-09-07T22:15:39.961Z,33.78
2022-09-07T22:18:14.302Z,35.08
2022-09-07T22:20:42.425Z,35.28
2022-09-07T22:23:12.426Z,35.47
2022-09-07T22:25:42.797Z,32.45
2022-09-07T22:28:15.464Z,31.55
2022-09-07T22:30:42.505Z,32.42
2022-09-07T22:33:09.543Z,39.65
2022-09-07T22:35:51.472Z,33.58
2022-09-07T22:38:24.604Z,31.23
2022-09-07T22:40:53.062Z,37.40
2022-09-07T22:43:23.280Z,31.25
2022-09-07T22:45:55.232Z,33.65
2022-09-07T22:48:27.230Z,31.88
2022-09-07T22:51:09.227Z,31.48
2022-09-07T22:53:46.839Z,31.70
2022-09-07T22:56:21.968Z,29.45
2022-09-07T22:58:54.701Z,34.40
2022-09-07T23:01:25.569Z,34.78
2022-09-07T23:03:59.794Z,32.85
2022-09-07T23:06:38.178Z,31.65
2022-09-07T23:09:11.124Z,31.15
2022-09-07T23:11:50.915Z,31.52
2022-09-07T23:14:27.624Z,31.52
2022-09-07T23:16:58.913Z,34.35
2022-09-07T23:19:28.932Z,33.50
2022-09-07T23:21:55.950Z,33.20
2022-09-07T23:24:28.435Z,42.05
2022-09-07T23:27:16.631Z,35.13
2022-09-07T23:29:52.295Z,36.63
2022-09-07T23:32:22.415Z,38.28
2022-09-07T23:34:54.197Z,37.42
2022-09-07T23:37:22.141Z,37.07
2022-09-07T23:39:49.165Z,39.63
2022-09-07T23:42:24.868Z,34.70
2022-09-07T23:44:58.534Z,33.42
2022-09-07T23:49:56.234Z,36.83
2022-09-07T23:52:23.189Z,36.08
2022-09-07T23:54:50.854Z,37.53
2022-09-07T23:57:20.967Z,38.45
2022-09-07T23:59:54.061Z,36.92
